Waidhofen an der Thaya, Austria
Current Conditions -  °F | °C
As of 2:00 AM on Thursday 23 Oct 2014 (Local Time) from LKNA Reporting Station
Light Rain Light Rain  
Wind Chill: 34°   Ceiling: 4000
Heat Index: 41°   Visibility: 6mi
Dew Point: 41°   Wind: 12mph
Humidity: 100%   Direction: 300°WNW
Pressure: 29.71"   Gusts: NA
Location:  48.82°N, 15.28°E
Report Text: LKNA 230000Z 30010KT 9999 -RA SCT011 BKN040 OVC060 05/05 Q1006
Loading
Personal Weather Stations






























Interactive Weather Map
Tropical Storm Tracking
New forecast layout! Learn more

10-Day Weather Forecast

Advertisements
Track Severe Weather on mobile